sensor_id;sensor_type;location;lat;lon;timestamp;pressure;altitude;pressure_sealevel;temperature;humidity
63405;BME280;49541;57.840;12.306;2024-01-25T00:02:29;99273.38;;;6.86;100.00
63405;BME280;49541;57.840;12.306;2024-01-25T00:07:29;99290.06;;;6.77;100.00
63405;BME280;49541;57.840;12.306;2024-01-25T00:12:29;99303.19;;;7.83;100.00
63405;BME280;49541;57.840;12.306;2024-01-25T00:17:30;99332.81;;;7.02;100.00
63405;BME280;49541;57.840;12.306;2024-01-25T00:22:30;99333.50;;;6.55;100.00
63405;BME280;49541;57.840;12.306;2024-01-25T00:27:30;99356.22;;;7.06;100.00
63405;BME280;49541;57.840;12.306;2024-01-25T00:32:30;99354.53;;;7.15;100.00
63405;BME280;49541;57.840;12.306;2024-01-25T00:37:31;99359.81;;;7.15;100.00
63405;BME280;49541;57.840;12.306;2024-01-25T00:42:31;99359.84;;;6.95;100.00
63405;BME280;49541;57.840;12.306;2024-01-25T00:47:37;99376.88;;;6.33;100.00
63405;BME280;49541;57.840;12.306;2024-01-25T00:52:37;99400.91;;;6.20;100.00
63405;BME280;49541;57.840;12.306;2024-01-25T00:57:38;99421.16;;;6.50;100.00
63405;BME280;49541;57.840;12.306;2024-01-25T01:02:47;99429.75;;;6.33;100.00
63405;BME280;49541;57.840;12.306;2024-01-25T01:07:48;99441.47;;;6.09;100.00
63405;BME280;49541;57.840;12.306;2024-01-25T01:12:48;99478.56;;;5.98;100.00
63405;BME280;49541;57.840;12.306;2024-01-25T01:17:48;99485.22;;;6.02;100.00
63405;BME280;49541;57.840;12.306;2024-01-25T01:22:48;99501.28;;;5.68;100.00
63405;BME280;49541;57.840;12.306;2024-01-25T01:27:49;99516.78;;;5.83;100.00
63405;BME280;49541;57.840;12.306;2024-01-25T01:32:49;99536.97;;;5.84;100.00
63405;BME280;49541;57.840;12.306;2024-01-25T01:37:49;99562.59;;;5.93;100.00
63405;BME280;49541;57.840;12.306;2024-01-25T01:42:49;99582.44;;;5.66;100.00
63405;BME280;49541;57.840;12.306;2024-01-25T01:47:50;99585.41;;;5.29;100.00
63405;BME280;49541;57.840;12.306;2024-01-25T01:52:50;99612.91;;;4.59;100.00
63405;BME280;49541;57.840;12.306;2024-01-25T01:57:51;99622.00;;;4.33;100.00
63405;BME280;49541;57.840;12.306;2024-01-25T02:02:51;99637.47;;;4.60;100.00
63405;BME280;49541;57.840;12.306;2024-01-25T02:07:51;99672.84;;;4.22;100.00
63405;BME280;49541;57.840;12.306;2024-01-25T02:12:52;99688.31;;;4.26;100.00
63405;BME280;49541;57.840;12.306;2024-01-25T02:17:53;99692.03;;;4.00;100.00
63405;BME280;49541;57.840;12.306;2024-01-25T02:22:53;99725.97;;;4.04;100.00
63405;BME280;49541;57.840;12.306;2024-01-25T02:27:53;99751.72;;;3.88;100.00
63405;BME280;49541;57.840;12.306;2024-01-25T02:32:53;99767.31;;;3.78;100.00
63405;BME280;49541;57.840;12.306;2024-01-25T02:37:53;99782.31;;;3.65;100.00
63405;BME280;49541;57.840;12.306;2024-01-25T02:42:54;99788.22;;;3.68;100.00
63405;BME280;49541;57.840;12.306;2024-01-25T02:47:54;99803.38;;;3.65;100.00
63405;BME280;49541;57.840;12.306;2024-01-25T02:52:54;99816.69;;;3.38;100.00
63405;BME280;49541;57.840;12.306;2024-01-25T02:57:54;99818.59;;;3.36;100.00
63405;BME280;49541;57.840;12.306;2024-01-25T03:02:55;99815.22;;;3.34;100.00
63405;BME280;49541;57.840;12.306;2024-01-25T03:07:55;99826.16;;;3.40;100.00
63405;BME280;49541;57.840;12.306;2024-01-25T03:12:55;99825.69;;;3.72;100.00
63405;BME280;49541;57.840;12.306;2024-01-25T03:17:55;99861.72;;;3.46;100.00
63405;BME280;49541;57.840;12.306;2024-01-25T03:22:57;99887.25;;;3.18;100.00
63405;BME280;49541;57.840;12.306;2024-01-25T03:27:57;99916.34;;;3.30;100.00
63405;BME280;49541;57.840;12.306;2024-01-25T03:32:58;99929.00;;;3.50;100.00
63405;BME280;49541;57.840;12.306;2024-01-25T03:37:58;99943.38;;;3.19;100.00
63405;BME280;49541;57.840;12.306;2024-01-25T03:42:58;99951.84;;;3.49;100.00
63405;BME280;49541;57.840;12.306;2024-01-25T03:47:58;99973.84;;;3.61;100.00
63405;BME280;49541;57.840;12.306;2024-01-25T03:52:58;99987.44;;;3.42;100.00
63405;BME280;49541;57.840;12.306;2024-01-25T03:57:59;100013.94;;;3.39;100.00
63405;BME280;49541;57.840;12.306;2024-01-25T04:02:59;100046.66;;;3.08;100.00
63405;BME280;49541;57.840;12.306;2024-01-25T04:07:59;100049.81;;;3.27;100.00
63405;BME280;49541;57.840;12.306;2024-01-25T04:12:59;100060.13;;;3.03;100.00
63405;BME280;49541;57.840;12.306;2024-01-25T04:18:04;100084.84;;;2.72;100.00
63405;BME280;49541;57.840;12.306;2024-01-25T04:23:04;100096.03;;;2.47;100.00
63405;BME280;49541;57.840;12.306;2024-01-25T04:28:05;100130.97;;;2.78;100.00
63405;BME280;49541;57.840;12.306;2024-01-25T04:33:05;100134.97;;;2.40;100.00
63405;BME280;49541;57.840;12.306;2024-01-25T04:38:05;100162.13;;;2.70;100.00
63405;BME280;49541;57.840;12.306;2024-01-25T04:43:06;100166.44;;;2.56;100.00
63405;BME280;49541;57.840;12.306;2024-01-25T04:48:06;100161.84;;;2.74;100.00
63405;BME280;49541;57.840;12.306;2024-01-25T04:53:06;100186.84;;;2.96;100.00
63405;BME280;49541;57.840;12.306;2024-01-25T04:58:06;100181.28;;;3.15;100.00
63405;BME280;49541;57.840;12.306;2024-01-25T05:03:07;100184.50;;;3.05;100.00
63405;BME280;49541;57.840;12.306;2024-01-25T05:08:07;100196.56;;;3.37;100.00
63405;BME280;49541;57.840;12.306;2024-01-25T05:13:08;100209.19;;;3.17;100.00
63405;BME280;49541;57.840;12.306;2024-01-25T05:18:08;100225.59;;;3.64;100.00
63405;BME280;49541;57.840;12.306;2024-01-25T05:23:08;100232.09;;;3.44;100.00
63405;BME280;49541;57.840;12.306;2024-01-25T05:28:09;100258.06;;;3.36;100.00
63405;BME280;49541;57.840;12.306;2024-01-25T05:33:09;100288.81;;;2.76;100.00
63405;BME280;49541;57.840;12.306;2024-01-25T05:38:10;100289.84;;;2.74;100.00
63405;BME280;49541;57.840;12.306;2024-01-25T05:43:10;100299.72;;;2.99;100.00
63405;BME280;49541;57.840;12.306;2024-01-25T05:48:10;100309.63;;;2.95;100.00
63405;BME280;49541;57.840;12.306;2024-01-25T05:53:11;100320.66;;;2.56;100.00
63405;BME280;49541;57.840;12.306;2024-01-25T05:58:11;100344.56;;;2.97;100.00
63405;BME280;49541;57.840;12.306;2024-01-25T06:03:11;100364.94;;;2.94;100.00
63405;BME280;49541;57.840;12.306;2024-01-25T06:08:12;100378.09;;;2.48;100.00
63405;BME280;49541;57.840;12.306;2024-01-25T06:13:12;100388.25;;;2.38;100.00
63405;BME280;49541;57.840;12.306;2024-01-25T06:18:12;100399.84;;;2.65;100.00
63405;BME280;49541;57.840;12.306;2024-01-25T06:23:12;100418.16;;;3.13;100.00
63405;BME280;49541;57.840;12.306;2024-01-25T06:28:13;100428.56;;;3.45;100.00
63405;BME280;49541;57.840;12.306;2024-01-25T06:33:13;100443.09;;;4.24;100.00
63405;BME280;49541;57.840;12.306;2024-01-25T06:38:13;100440.28;;;3.25;100.00
63405;BME280;49541;57.840;12.306;2024-01-25T06:43:14;100449.09;;;3.24;100.00
63405;BME280;49541;57.840;12.306;2024-01-25T06:48:15;100457.75;;;2.96;100.00
63405;BME280;49541;57.840;12.306;2024-01-25T06:53:16;100480.38;;;2.98;100.00
63405;BME280;49541;57.840;12.306;2024-01-25T06:58:16;100495.53;;;2.95;100.00
63405;BME280;49541;57.840;12.306;2024-01-25T07:03:16;100514.59;;;3.14;100.00
63405;BME280;49541;57.840;12.306;2024-01-25T07:08:17;100516.28;;;2.99;100.00
63405;BME280;49541;57.840;12.306;2024-01-25T07:13:17;100524.69;;;3.06;100.00
63405;BME280;49541;57.840;12.306;2024-01-25T07:18:17;100542.50;;;3.01;100.00
63405;BME280;49541;57.840;12.306;2024-01-25T07:23:20;100542.25;;;2.74;100.00
63405;BME280;49541;57.840;12.306;2024-01-25T07:28:20;100555.66;;;2.85;100.00
63405;BME280;49541;57.840;12.306;2024-01-25T07:33:21;100576.69;;;3.01;100.00
63405;BME280;49541;57.840;12.306;2024-01-25T07:38:22;100582.38;;;3.09;100.00
63405;BME280;49541;57.840;12.306;2024-01-25T07:43:22;100597.22;;;2.94;100.00
63405;BME280;49541;57.840;12.306;2024-01-25T07:48:22;100602.31;;;2.81;100.00
63405;BME280;49541;57.840;12.306;2024-01-25T07:53:22;100600.44;;;2.83;100.00
63405;BME280;49541;57.840;12.306;2024-01-25T07:58:23;100623.03;;;3.19;100.00
63405;BME280;49541;57.840;12.306;2024-01-25T08:03:23;100640.94;;;3.13;100.00
63405;BME280;49541;57.840;12.306;2024-01-25T08:08:23;100654.22;;;3.27;100.00
63405;BME280;49541;57.840;12.306;2024-01-25T08:13:23;100661.09;;;3.30;100.00
63405;BME280;49541;57.840;12.306;2024-01-25T08:18:24;100664.13;;;3.54;100.00
63405;BME280;49541;57.840;12.306;2024-01-25T08:23:25;100678.88;;;3.88;100.00
63405;BME280;49541;57.840;12.306;2024-01-25T08:28:25;100687.94;;;4.28;100.00
63405;BME280;49541;57.840;12.306;2024-01-25T08:33:25;100684.44;;;4.28;100.00
63405;BME280;49541;57.840;12.306;2024-01-25T08:38:25;100685.34;;;4.13;100.00
63405;BME280;49541;57.840;12.306;2024-01-25T08:43:26;100714.09;;;4.01;100.00
63405;BME280;49541;57.840;12.306;2024-01-25T08:48:26;100722.19;;;3.98;100.00
63405;BME280;49541;57.840;12.306;2024-01-25T08:53:27;100723.00;;;3.68;100.00
63405;BME280;49541;57.840;12.306;2024-01-25T08:58:27;100734.53;;;3.82;100.00
63405;BME280;49541;57.840;12.306;2024-01-25T09:03:29;100748.72;;;3.63;100.00
63405;BME280;49541;57.840;12.306;2024-01-25T09:08:29;100750.75;;;3.74;100.00
63405;BME280;49541;57.840;12.306;2024-01-25T09:13:29;100747.44;;;3.39;100.00
63405;BME280;49541;57.840;12.306;2024-01-25T09:18:29;100754.78;;;3.16;100.00
63405;BME280;49541;57.840;12.306;2024-01-25T09:23:30;100758.22;;;3.98;100.00
63405;BME280;49541;57.840;12.306;2024-01-25T09:28:30;100773.00;;;4.16;100.00
63405;BME280;49541;57.840;12.306;2024-01-25T09:33:30;100781.16;;;4.12;100.00
63405;BME280;49541;57.840;12.306;2024-01-25T09:38:30;100793.94;;;3.87;100.00
63405;BME280;49541;57.840;12.306;2024-01-25T09:43:30;100803.59;;;3.87;100.00
63405;BME280;49541;57.840;12.306;2024-01-25T09:48:31;100807.75;;;3.91;100.00
63405;BME280;49541;57.840;12.306;2024-01-25T09:53:32;100806.78;;;3.94;100.00
63405;BME280;49541;57.840;12.306;2024-01-25T09:58:37;100816.03;;;4.01;100.00
63405;BME280;49541;57.840;12.306;2024-01-25T10:03:38;100816.94;;;3.68;100.00
63405;BME280;49541;57.840;12.306;2024-01-25T10:08:42;100823.16;;;4.15;100.00
63405;BME280;49541;57.840;12.306;2024-01-25T10:13:46;100833.25;;;3.90;100.00
63405;BME280;49541;57.840;12.306;2024-01-25T10:18:47;100840.84;;;3.81;100.00
63405;BME280;49541;57.840;12.306;2024-01-25T10:23:48;100839.47;;;4.37;100.00
63405;BME280;49541;57.840;12.306;2024-01-25T10:28:51;100843.66;;;4.71;100.00
63405;BME280;49541;57.840;12.306;2024-01-25T10:33:52;100837.47;;;5.31;100.00
63405;BME280;49541;57.840;12.306;2024-01-25T10:38:56;100846.88;;;5.50;100.00
63405;BME280;49541;57.840;12.306;2024-01-25T10:43:57;100848.31;;;6.26;100.00
63405;BME280;49541;57.840;12.306;2024-01-25T10:48:57;100843.03;;;6.53;100.00
63405;BME280;49541;57.840;12.306;2024-01-25T10:53:58;100845.25;;;6.86;100.00
63405;BME280;49541;57.840;12.306;2024-01-25T10:59:00;100850.72;;;6.16;100.00
63405;BME280;49541;57.840;12.306;2024-01-25T11:04:00;100864.59;;;6.20;100.00
63405;BME280;49541;57.840;12.306;2024-01-25T11:09:07;100873.22;;;6.36;100.00
63405;BME280;49541;57.840;12.306;2024-01-25T11:14:11;100873.03;;;6.39;100.00
63405;BME280;49541;57.840;12.306;2024-01-25T11:19:18;100878.56;;;6.76;100.00
63405;BME280;49541;57.840;12.306;2024-01-25T11:29:20;100885.47;;;7.31;100.00
63405;BME280;49541;57.840;12.306;2024-01-25T11:34:22;100894.44;;;7.93;100.00
63405;BME280;49541;57.840;12.306;2024-01-25T11:39:23;100897.38;;;8.01;100.00
63405;BME280;49541;57.840;12.306;2024-01-25T11:44:24;100893.66;;;8.53;100.00
63405;BME280;49541;57.840;12.306;2024-01-25T11:49:24;100897.56;;;8.85;100.00
63405;BME280;49541;57.840;12.306;2024-01-25T11:54:25;100890.97;;;9.93;100.00
63405;BME280;49541;57.840;12.306;2024-01-25T11:59:25;100902.22;;;9.97;100.00
63405;BME280;49541;57.840;12.306;2024-01-25T12:04:26;100920.88;;;10.74;100.00
63405;BME280;49541;57.840;12.306;2024-01-25T12:09:27;100927.88;;;11.07;100.00
63405;BME280;49541;57.840;12.306;2024-01-25T12:14:27;100935.66;;;11.32;100.00
63405;BME280;49541;57.840;12.306;2024-01-25T12:19:28;100946.44;;;11.30;100.00
63405;BME280;49541;57.840;12.306;2024-01-25T12:24:30;100946.28;;;11.74;100.00
63405;BME280;49541;57.840;12.306;2024-01-25T12:29:30;100948.41;;;9.96;100.00
63405;BME280;49541;57.840;12.306;2024-01-25T12:34:31;100944.06;;;10.29;100.00
63405;BME280;49541;57.840;12.306;2024-01-25T12:39:31;100953.00;;;11.89;100.00
63405;BME280;49541;57.840;12.306;2024-01-25T12:44:32;100958.31;;;12.50;100.00
63405;BME280;49541;57.840;12.306;2024-01-25T12:49:32;100974.19;;;13.31;100.00
63405;BME280;49541;57.840;12.306;2024-01-25T12:54:32;100971.44;;;12.83;96.81
63405;BME280;49541;57.840;12.306;2024-01-25T12:59:33;100972.72;;;12.28;100.00
63405;BME280;49541;57.840;12.306;2024-01-25T13:04:34;100980.31;;;13.03;97.27
63405;BME280;49541;57.840;12.306;2024-01-25T13:09:35;100984.00;;;12.52;96.26
63405;BME280;49541;57.840;12.306;2024-01-25T13:14:37;100991.84;;;12.03;99.29
63405;BME280;49541;57.840;12.306;2024-01-25T13:19:37;100984.00;;;11.27;100.00
63405;BME280;49541;57.840;12.306;2024-01-25T13:24:37;100987.69;;;11.47;100.00
63405;BME280;49541;57.840;12.306;2024-01-25T13:29:38;100981.28;;;10.74;100.00
63405;BME280;49541;57.840;12.306;2024-01-25T13:34:39;100986.13;;;10.23;100.00
63405;BME280;49541;57.840;12.306;2024-01-25T13:39:39;100983.44;;;9.78;100.00
63405;BME280;49541;57.840;12.306;2024-01-25T13:44:39;100991.94;;;9.13;100.00
63405;BME280;49541;57.840;12.306;2024-01-25T13:49:39;101002.19;;;9.41;100.00
63405;BME280;49541;57.840;12.306;2024-01-25T13:54:44;101001.25;;;8.70;100.00
63405;BME280;49541;57.840;12.306;2024-01-25T13:59:45;101007.19;;;9.22;100.00
63405;BME280;49541;57.840;12.306;2024-01-25T14:04:46;100999.50;;;9.30;100.00
63405;BME280;49541;57.840;12.306;2024-01-25T14:09:46;101006.53;;;8.83;100.00
63405;BME280;49541;57.840;12.306;2024-01-25T14:14:48;101006.91;;;9.73;100.00
63405;BME280;49541;57.840;12.306;2024-01-25T14:19:49;101018.22;;;9.29;100.00
63405;BME280;49541;57.840;12.306;2024-01-25T14:24:49;101031.56;;;8.42;100.00
63405;BME280;49541;57.840;12.306;2024-01-25T14:29:50;101027.84;;;8.45;100.00
63405;BME280;49541;57.840;12.306;2024-01-25T14:34:50;101036.66;;;8.19;100.00
63405;BME280;49541;57.840;12.306;2024-01-25T14:39:51;101042.56;;;8.61;100.00
63405;BME280;49541;57.840;12.306;2024-01-25T14:44:52;101049.81;;;8.59;100.00
63405;BME280;49541;57.840;12.306;2024-01-25T14:49:52;101045.84;;;7.75;100.00
63405;BME280;49541;57.840;12.306;2024-01-25T14:54:52;101057.13;;;8.56;100.00
63405;BME280;49541;57.840;12.306;2024-01-25T14:59:52;101064.94;;;7.80;100.00
63405;BME280;49541;57.840;12.306;2024-01-25T15:04:53;101054.06;;;7.45;100.00
63405;BME280;49541;57.840;12.306;2024-01-25T15:09:53;101056.31;;;7.24;100.00
63405;BME280;49541;57.840;12.306;2024-01-25T15:14:53;101069.63;;;7.10;100.00
63405;BME280;49541;57.840;12.306;2024-01-25T15:19:53;101079.41;;;6.81;100.00
63405;BME280;49541;57.840;12.306;2024-01-25T15:24:53;101087.09;;;6.56;100.00
63405;BME280;49541;57.840;12.306;2024-01-25T15:29:54;101093.59;;;6.51;100.00
63405;BME280;49541;57.840;12.306;2024-01-25T15:34:54;101095.97;;;6.55;100.00
63405;BME280;49541;57.840;12.306;2024-01-25T15:39:54;101092.19;;;6.60;100.00
63405;BME280;49541;57.840;12.306;2024-01-25T15:44:54;101093.88;;;6.18;100.00
63405;BME280;49541;57.840;12.306;2024-01-25T15:49:55;101093.88;;;5.57;100.00
63405;BME280;49541;57.840;12.306;2024-01-25T15:54:55;101092.28;;;5.39;100.00
63405;BME280;49541;57.840;12.306;2024-01-25T15:59:55;101075.44;;;5.25;100.00
63405;BME280;49541;57.840;12.306;2024-01-25T16:04:55;101086.50;;;5.16;100.00
63405;BME280;49541;57.840;12.306;2024-01-25T16:09:55;101090.59;;;4.90;100.00
63405;BME280;49541;57.840;12.306;2024-01-25T16:14:56;101087.63;;;4.96;100.00
63405;BME280;49541;57.840;12.306;2024-01-25T16:19:58;101091.13;;;4.81;100.00
63405;BME280;49541;57.840;12.306;2024-01-25T16:24:59;101100.31;;;4.40;100.00
63405;BME280;49541;57.840;12.306;2024-01-25T16:29:59;101101.13;;;4.58;100.00
63405;BME280;49541;57.840;12.306;2024-01-25T16:34:59;101116.69;;;4.29;100.00
63405;BME280;49541;57.840;12.306;2024-01-25T16:39:59;101122.41;;;4.04;100.00
63405;BME280;49541;57.840;12.306;2024-01-25T16:45:00;101123.78;;;4.12;100.00
63405;BME280;49541;57.840;12.306;2024-01-25T16:50:00;101134.00;;;4.18;100.00
63405;BME280;49541;57.840;12.306;2024-01-25T16:55:00;101137.56;;;3.99;100.00
63405;BME280;49541;57.840;12.306;2024-01-25T17:00:01;101132.31;;;3.45;100.00
63405;BME280;49541;57.840;12.306;2024-01-25T17:05:01;101137.97;;;3.92;100.00
63405;BME280;49541;57.840;12.306;2024-01-25T17:10:01;101128.69;;;3.65;100.00
63405;BME280;49541;57.840;12.306;2024-01-25T17:15:01;101152.66;;;3.05;100.00
63405;BME280;49541;57.840;12.306;2024-01-25T17:20:02;101158.81;;;2.25;100.00
63405;BME280;49541;57.840;12.306;2024-01-25T17:25:02;101170.19;;;2.46;100.00
63405;BME280;49541;57.840;12.306;2024-01-25T17:30:03;101163.81;;;2.52;100.00
63405;BME280;49541;57.840;12.306;2024-01-25T17:35:03;101183.75;;;1.95;100.00
63405;BME280;49541;57.840;12.306;2024-01-25T17:40:04;101180.91;;;1.35;100.00
63405;BME280;49541;57.840;12.306;2024-01-25T17:45:05;101193.03;;;1.15;100.00
63405;BME280;49541;57.840;12.306;2024-01-25T17:50:05;101191.91;;;1.67;100.00
63405;BME280;49541;57.840;12.306;2024-01-25T17:55:06;101197.22;;;1.43;100.00
63405;BME280;49541;57.840;12.306;2024-01-25T18:00:06;101188.53;;;1.41;100.00
63405;BME280;49541;57.840;12.306;2024-01-25T18:05:07;101193.41;;;1.50;100.00
63405;BME280;49541;57.840;12.306;2024-01-25T18:10:07;101190.38;;;1.61;100.00
63405;BME280;49541;57.840;12.306;2024-01-25T18:15:08;101191.72;;;1.71;100.00
63405;BME280;49541;57.840;12.306;2024-01-25T18:20:13;101181.41;;;1.67;100.00
63405;BME280;49541;57.840;12.306;2024-01-25T18:25:13;101181.44;;;1.87;100.00
63405;BME280;49541;57.840;12.306;2024-01-25T18:30:13;101174.09;;;1.95;100.00
63405;BME280;49541;57.840;12.306;2024-01-25T18:35:14;101180.47;;;1.68;100.00
63405;BME280;49541;57.840;12.306;2024-01-25T18:40:15;101168.75;;;1.54;100.00
63405;BME280;49541;57.840;12.306;2024-01-25T18:45:15;101176.81;;;1.50;100.00
63405;BME280;49541;57.840;12.306;2024-01-25T18:50:15;101189.66;;;1.57;100.00
63405;BME280;49541;57.840;12.306;2024-01-25T18:55:16;101190.13;;;1.23;100.00
63405;BME280;49541;57.840;12.306;2024-01-25T19:00:16;101185.75;;;1.22;100.00
63405;BME280;49541;57.840;12.306;2024-01-25T19:05:16;101177.66;;;1.50;100.00
63405;BME280;49541;57.840;12.306;2024-01-25T19:10:17;101173.03;;;1.57;100.00
63405;BME280;49541;57.840;12.306;2024-01-25T19:15:17;101175.84;;;1.07;100.00
63405;BME280;49541;57.840;12.306;2024-01-25T19:20:17;101180.75;;;1.16;100.00
63405;BME280;49541;57.840;12.306;2024-01-25T19:25:18;101180.19;;;1.31;100.00
63405;BME280;49541;57.840;12.306;2024-01-25T19:30:18;101178.75;;;0.99;100.00
63405;BME280;49541;57.840;12.306;2024-01-25T19:35:19;101189.69;;;1.78;100.00
63405;BME280;49541;57.840;12.306;2024-01-25T19:40:21;101178.09;;;1.39;100.00
63405;BME280;49541;57.840;12.306;2024-01-25T19:45:21;101171.09;;;0.46;100.00
63405;BME280;49541;57.840;12.306;2024-01-25T19:50:21;101176.84;;;0.55;100.00
63405;BME280;49541;57.840;12.306;2024-01-25T19:55:22;101171.13;;;0.69;100.00
63405;BME280;49541;57.840;12.306;2024-01-25T20:00:22;101164.06;;;0.48;100.00
63405;BME280;49541;57.840;12.306;2024-01-25T20:05:23;101167.56;;;0.47;100.00
63405;BME280;49541;57.840;12.306;2024-01-25T20:10:23;101157.41;;;0.37;100.00
63405;BME280;49541;57.840;12.306;2024-01-25T20:15:23;101156.81;;;0.54;100.00
63405;BME280;49541;57.840;12.306;2024-01-25T20:20:24;101161.06;;;0.33;100.00
63405;BME280;49541;57.840;12.306;2024-01-25T20:25:24;101159.28;;;0.09;100.00
63405;BME280;49541;57.840;12.306;2024-01-25T20:30:25;101167.94;;;-0.16;100.00
63405;BME280;49541;57.840;12.306;2024-01-25T20:35:28;101169.84;;;0.32;100.00
63405;BME280;49541;57.840;12.306;2024-01-25T20:40:28;101164.13;;;0.45;100.00
63405;BME280;49541;57.840;12.306;2024-01-25T20:45:31;101169.97;;;-0.24;100.00
63405;BME280;49541;57.840;12.306;2024-01-25T20:50:31;101156.94;;;-0.26;100.00
63405;BME280;49541;57.840;12.306;2024-01-25T20:55:31;101157.69;;;-0.22;100.00
63405;BME280;49541;57.840;12.306;2024-01-25T21:00:32;101153.75;;;-0.09;100.00
63405;BME280;49541;57.840;12.306;2024-01-25T21:05:33;101150.53;;;-0.17;100.00
63405;BME280;49541;57.840;12.306;2024-01-25T21:10:33;101147.13;;;-0.19;100.00
63405;BME280;49541;57.840;12.306;2024-01-25T21:15:34;101157.78;;;-0.25;100.00
63405;BME280;49541;57.840;12.306;2024-01-25T21:20:34;101164.94;;;-0.04;100.00
63405;BME280;49541;57.840;12.306;2024-01-25T21:25:35;101163.06;;;0.25;100.00
63405;BME280;49541;57.840;12.306;2024-01-25T21:30:35;101165.66;;;0.52;100.00
63405;BME280;49541;57.840;12.306;2024-01-25T21:35:35;101158.19;;;0.65;100.00
63405;BME280;49541;57.840;12.306;2024-01-25T21:40:36;101161.25;;;0.27;100.00
63405;BME280;49541;57.840;12.306;2024-01-25T21:45:37;101152.47;;;0.53;100.00
63405;BME280;49541;57.840;12.306;2024-01-25T21:50:39;101154.31;;;0.26;100.00
63405;BME280;49541;57.840;12.306;2024-01-25T21:55:39;101146.41;;;0.03;100.00
63405;BME280;49541;57.840;12.306;2024-01-25T22:00:41;101138.19;;;-0.13;100.00
63405;BME280;49541;57.840;12.306;2024-01-25T22:05:41;101155.72;;;-0.42;100.00
63405;BME280;49541;57.840;12.306;2024-01-25T22:10:42;101167.34;;;-0.51;100.00
63405;BME280;49541;57.840;12.306;2024-01-25T22:15:42;101161.91;;;-0.73;100.00
63405;BME280;49541;57.840;12.306;2024-01-25T22:20:42;101163.78;;;-0.78;100.00
63405;BME280;49541;57.840;12.306;2024-01-25T22:25:42;101157.72;;;-0.50;100.00
63405;BME280;49541;57.840;12.306;2024-01-25T22:30:43;101143.06;;;-0.28;100.00
63405;BME280;49541;57.840;12.306;2024-01-25T22:35:43;101135.69;;;-0.16;100.00
63405;BME280;49541;57.840;12.306;2024-01-25T22:40:43;101135.78;;;-0.46;100.00
63405;BME280;49541;57.840;12.306;2024-01-25T22:45:43;101128.50;;;-0.36;100.00
63405;BME280;49541;57.840;12.306;2024-01-25T22:50:43;101125.31;;;-0.73;100.00
63405;BME280;49541;57.840;12.306;2024-01-25T22:55:44;101130.31;;;-0.95;100.00
63405;BME280;49541;57.840;12.306;2024-01-25T23:00:44;101122.34;;;-0.62;100.00
63405;BME280;49541;57.840;12.306;2024-01-25T23:05:45;101128.06;;;-0.24;100.00
63405;BME280;49541;57.840;12.306;2024-01-25T23:10:46;101123.66;;;-0.49;100.00
63405;BME280;49541;57.840;12.306;2024-01-25T23:15:46;101114.81;;;-0.45;100.00
63405;BME280;49541;57.840;12.306;2024-01-25T23:20:47;101109.59;;;-0.73;100.00
63405;BME280;49541;57.840;12.306;2024-01-25T23:25:47;101115.88;;;-0.78;100.00
63405;BME280;49541;57.840;12.306;2024-01-25T23:30:47;101109.47;;;-0.68;100.00
63405;BME280;49541;57.840;12.306;2024-01-25T23:35:48;101107.16;;;-0.51;100.00
63405;BME280;49541;57.840;12.306;2024-01-25T23:40:48;101108.47;;;-0.92;100.00
63405;BME280;49541;57.840;12.306;2024-01-25T23:45:48;101101.03;;;-1.06;100.00
63405;BME280;49541;57.840;12.306;2024-01-25T23:50:48;101092.63;;;-0.88;100.00
63405;BME280;49541;57.840;12.306;2024-01-25T23:55:49;101104.53;;;-0.77;100.00
